createdAt,value
2019-02-17T00:00:44.421Z,65.09
2019-02-17T00:03:14.157Z,65.15
2019-02-17T00:05:43.942Z,65.27
2019-02-17T00:08:13.679Z,65.72
2019-02-17T00:10:43.437Z,65.60
2019-02-17T00:13:13.204Z,65.72
2019-02-17T00:15:42.998Z,65.68
2019-02-17T00:18:12.954Z,65.66
2019-02-17T00:20:42.678Z,65.95
2019-02-17T00:23:12.439Z,65.87
2019-02-17T00:25:42.209Z,65.92
2019-02-17T00:28:11.931Z,65.81
2019-02-17T00:30:41.713Z,65.82
2019-02-17T00:33:11.443Z,65.98
2019-02-17T00:35:41.206Z,66.24
2019-02-17T00:38:10.965Z,66.20
2019-02-17T00:40:40.896Z,66.42
2019-02-17T00:43:10.679Z,66.17
2019-02-17T00:45:40.404Z,66.51
2019-02-17T00:48:10.164Z,66.62
2019-02-17T00:50:39.913Z,66.22
2019-02-17T00:53:09.634Z,66.23
2019-02-17T00:55:39.385Z,66.35
2019-02-17T00:58:09.145Z,66.51
2019-02-17T01:00:38.903Z,66.51
2019-02-17T01:03:08.560Z,66.33
2019-02-17T01:05:38.339Z,66.43
2019-02-17T01:08:08.581Z,66.44
2019-02-17T01:10:38.368Z,66.34
2019-02-17T01:13:08.092Z,66.33
2019-02-17T01:15:37.870Z,66.33
2019-02-17T01:18:07.585Z,66.26
2019-02-17T01:20:37.331Z,65.98
2019-02-17T01:23:07.096Z,66.16
2019-02-17T01:25:36.805Z,66.16
2019-02-17T01:28:06.594Z,66.25
2019-02-17T01:30:36.398Z,66.44
2019-02-17T01:33:06.158Z,66.32
2019-02-17T01:35:35.913Z,66.37
2019-02-17T01:38:05.683Z,66.11
2019-02-17T01:40:35.445Z,66.18
2019-02-17T01:43:05.197Z,66.15
2019-02-17T01:45:34.956Z,66.35
2019-02-17T01:48:04.677Z,66.14
2019-02-17T01:50:34.394Z,66.01
2019-02-17T01:53:04.113Z,66.08
2019-02-17T01:55:33.895Z,65.94
2019-02-17T01:58:03.627Z,65.59
2019-02-17T02:00:33.368Z,65.72
2019-02-17T02:03:03.127Z,65.99
2019-02-17T02:05:32.838Z,65.87
2019-02-17T02:08:02.622Z,66.09
2019-02-17T02:10:32.336Z,66.27
2019-02-17T02:13:02.088Z,66.29
2019-02-17T02:15:31.840Z,66.26
2019-02-17T02:18:01.560Z,66.45
2019-02-17T02:20:31.414Z,66.07
2019-02-17T02:23:01.142Z,66.18
2019-02-17T02:25:31.228Z,66.01
2019-02-17T02:28:00.953Z,66.08
2019-02-17T02:30:30.703Z,66.07
2019-02-17T02:33:00.529Z,66.24
2019-02-17T02:35:30.249Z,66.61
2019-02-17T02:38:00.124Z,66.65
2019-02-17T02:40:29.847Z,66.91
2019-02-17T02:42:59.622Z,67.24
2019-02-17T02:45:29.339Z,67.07
2019-02-17T02:47:59.314Z,66.90
2019-02-17T02:50:29.031Z,67.08
2019-02-17T02:52:58.769Z,67.39
2019-02-17T02:55:28.526Z,67.59
2019-02-17T02:57:58.253Z,67.75
2019-02-17T03:00:28.085Z,67.81
2019-02-17T03:02:57.822Z,67.96
2019-02-17T03:05:27.725Z,67.82
2019-02-17T03:07:57.420Z,68.04
2019-02-17T03:10:27.162Z,68.22
2019-02-17T03:12:56.913Z,68.04
2019-02-17T03:15:26.700Z,68.09
2019-02-17T03:17:57.152Z,68.16
2019-02-17T03:20:27.285Z,68.34
2019-02-17T03:22:57.046Z,68.22
2019-02-17T03:25:26.827Z,67.97
2019-02-17T03:27:56.579Z,67.91
2019-02-17T03:30:26.339Z,68.18
2019-02-17T03:32:56.094Z,68.36
2019-02-17T03:35:25.740Z,68.32
2019-02-17T03:37:55.519Z,68.17
2019-02-17T03:40:25.235Z,68.22
2019-02-17T03:42:54.990Z,68.28
2019-02-17T03:45:24.742Z,68.44
2019-02-17T03:47:54.458Z,68.41
2019-02-17T03:50:24.336Z,68.31
2019-02-17T03:52:54.053Z,68.40
2019-02-17T03:55:23.843Z,68.40
2019-02-17T03:57:53.594Z,68.40
2019-02-17T04:00:23.354Z,68.33
2019-02-17T04:02:53.115Z,68.36
2019-02-17T04:05:22.838Z,68.47
2019-02-17T04:07:52.912Z,68.51
2019-02-17T04:10:22.624Z,68.68
2019-02-17T04:12:52.404Z,68.63
2019-02-17T04:15:22.125Z,68.41
2019-02-17T04:17:51.883Z,68.33
2019-02-17T04:20:21.654Z,68.57
2019-02-17T04:22:51.453Z,68.53
2019-02-17T04:25:21.210Z,68.84
2019-02-17T04:27:50.989Z,68.55
2019-02-17T04:30:28.682Z,68.53
2019-02-17T04:32:52.159Z,68.73
2019-02-17T04:35:21.945Z,68.48
2019-02-17T04:37:51.592Z,68.96
2019-02-17T04:40:21.375Z,69.03
2019-02-17T04:42:51.101Z,69.19
2019-02-17T04:45:20.862Z,69.22
2019-02-17T04:47:50.636Z,69.02
2019-02-17T04:50:20.351Z,69.08
2019-02-17T04:52:50.139Z,69.18
2019-02-17T04:55:19.970Z,69.25
2019-02-17T04:57:49.652Z,68.99
2019-02-17T05:00:19.411Z,68.98
2019-02-17T05:02:49.127Z,69.13
2019-02-17T05:05:18.904Z,69.19
2019-02-17T05:07:48.622Z,69.05
2019-02-17T05:10:18.367Z,69.22
2019-02-17T05:12:48.127Z,69.36
2019-02-17T05:15:17.845Z,69.37
2019-02-17T05:17:47.614Z,69.40
2019-02-17T05:20:17.289Z,69.57
2019-02-17T05:22:47.078Z,69.57
2019-02-17T05:25:16.784Z,69.83
2019-02-17T05:27:46.533Z,69.82
2019-02-17T05:30:16.282Z,69.85
2019-02-17T05:32:46.067Z,69.94
2019-02-17T05:35:15.748Z,70.03
2019-02-17T05:37:45.503Z,70.07
2019-02-17T05:40:15.193Z,70.14
2019-02-17T05:42:44.915Z,70.52
2019-02-17T05:45:14.705Z,70.39
2019-02-17T05:47:44.422Z,70.55
2019-02-17T05:50:14.297Z,70.62
2019-02-17T05:52:44.128Z,70.44
2019-02-17T05:55:14.697Z,70.54
2019-02-17T05:57:44.478Z,70.65
2019-02-17T06:00:15.146Z,70.42
2019-02-17T06:02:44.902Z,70.89
2019-02-17T06:05:14.694Z,70.56
2019-02-17T06:07:44.460Z,70.66
2019-02-17T06:10:14.345Z,70.91
2019-02-17T06:12:44.083Z,70.99
2019-02-17T06:15:13.839Z,70.68
2019-02-17T06:17:43.617Z,70.90
2019-02-17T06:20:13.330Z,70.97
2019-02-17T06:22:43.164Z,70.63
2019-02-17T06:25:12.892Z,70.94
2019-02-17T06:27:42.844Z,71.03
2019-02-17T06:30:12.562Z,70.83
2019-02-17T06:32:42.340Z,70.60
2019-02-17T06:35:12.067Z,70.54
2019-02-17T06:37:41.834Z,70.80
2019-02-17T06:40:11.590Z,70.63
2019-02-17T06:42:41.311Z,70.26
2019-02-17T06:45:11.094Z,70.16
2019-02-17T06:47:40.814Z,70.03
2019-02-17T06:50:11.223Z,69.78
2019-02-17T06:52:40.945Z,69.62
2019-02-17T06:55:15.416Z,69.56
2019-02-17T06:57:45.072Z,69.08
2019-02-17T07:00:16.418Z,68.97
2019-02-17T07:02:46.163Z,68.50
2019-02-17T07:05:19.960Z,68.28
2019-02-17T07:07:49.694Z,68.49
2019-02-17T07:10:19.459Z,68.02
2019-02-17T07:12:49.178Z,67.83
2019-02-17T07:15:18.957Z,67.38
2019-02-17T07:17:48.684Z,67.36
2019-02-17T07:20:18.444Z,66.93
2019-02-17T07:22:48.206Z,66.69
2019-02-17T07:25:17.984Z,66.34
2019-02-17T07:27:47.738Z,66.17
2019-02-17T07:30:17.496Z,65.89
2019-02-17T07:32:47.257Z,65.50
2019-02-17T07:35:16.987Z,64.99
2019-02-17T07:37:46.765Z,65.07
2019-02-17T07:40:16.486Z,64.92
2019-02-17T07:42:46.260Z,64.49
2019-02-17T07:45:15.977Z,64.38
2019-02-17T07:47:45.674Z,64.24
2019-02-17T07:50:15.416Z,63.82
2019-02-17T07:52:45.196Z,63.48
2019-02-17T07:55:14.889Z,63.49
2019-02-17T07:57:44.640Z,63.38
2019-02-17T08:00:14.397Z,63.07
2019-02-17T08:02:44.051Z,62.25
2019-02-17T08:05:13.818Z,62.47
2019-02-17T08:07:43.532Z,62.48
2019-02-17T08:10:13.299Z,62.39
2019-02-17T08:12:43.024Z,62.02
2019-02-17T08:15:12.742Z,61.77
2019-02-17T08:17:42.462Z,61.56
2019-02-17T08:20:12.108Z,61.45
2019-02-17T08:22:41.884Z,61.32
2019-02-17T08:25:19.359Z,61.15
2019-02-17T08:27:43.022Z,60.91
2019-02-17T08:30:13.736Z,60.88
2019-02-17T08:32:44.196Z,60.84
2019-02-17T08:35:14.124Z,60.67
2019-02-17T08:37:44.038Z,60.75
2019-02-17T08:40:13.787Z,60.56
2019-02-17T08:42:43.594Z,60.24
2019-02-17T08:45:13.355Z,60.13
2019-02-17T08:47:43.102Z,60.10
2019-02-17T08:50:12.848Z,59.83
2019-02-17T08:52:42.636Z,59.80
2019-02-17T08:55:12.427Z,59.72
2019-02-17T08:57:42.139Z,59.37
2019-02-17T09:00:13.885Z,59.26
2019-02-17T09:02:43.652Z,58.55
2019-02-17T09:05:13.416Z,58.78
2019-02-17T09:07:43.174Z,58.78
2019-02-17T09:10:13.490Z,58.90
2019-02-17T09:12:43.169Z,58.80
2019-02-17T09:15:12.946Z,58.54
2019-02-17T09:17:42.699Z,58.29
2019-02-17T09:20:12.375Z,58.31
2019-02-17T09:22:42.126Z,58.39
2019-02-17T09:25:12.241Z,58.16
2019-02-17T09:27:42.316Z,58.01
2019-02-17T09:30:16.724Z,57.84
2019-02-17T09:32:46.501Z,57.36
2019-02-17T09:35:16.158Z,57.47
2019-02-17T09:37:45.934Z,57.49
2019-02-17T09:40:15.648Z,57.28
2019-02-17T09:42:45.324Z,57.23
2019-02-17T09:45:15.987Z,57.06
2019-02-17T09:47:45.633Z,56.43
2019-02-17T09:50:15.510Z,56.46
2019-02-17T09:52:45.220Z,56.42
2019-02-17T09:55:15.002Z,56.03
2019-02-17T09:57:44.717Z,55.93
2019-02-17T10:00:17.493Z,55.97
2019-02-17T10:02:47.212Z,55.59
2019-02-17T10:05:16.988Z,55.59
2019-02-17T10:07:46.723Z,55.15
2019-02-17T10:10:18.400Z,54.83
2019-02-17T10:12:48.112Z,55.09
2019-02-17T10:15:18.171Z,54.37
2019-02-17T10:17:47.890Z,54.65
2019-02-17T10:20:17.575Z,56.91
2019-02-17T10:22:47.404Z,54.54
2019-02-17T10:25:17.180Z,53.22
2019-02-17T10:27:46.933Z,52.65
2019-02-17T10:30:19.014Z,51.61
2019-02-17T10:32:48.971Z,52.36
2019-02-17T10:35:18.767Z,52.56
2019-02-17T10:37:48.508Z,52.96
2019-02-17T10:40:23.145Z,52.59
2019-02-17T10:42:52.667Z,52.93
2019-02-17T10:45:22.437Z,53.55
2019-02-17T10:47:52.186Z,53.06
2019-02-17T10:50:21.870Z,53.41
2019-02-17T10:52:51.623Z,53.30
2019-02-17T10:55:21.344Z,53.70
2019-02-17T10:57:51.120Z,53.09
2019-02-17T11:00:22.434Z,53.37
2019-02-17T11:02:52.215Z,53.35
2019-02-17T11:05:21.883Z,53.44
2019-02-17T11:07:51.636Z,53.35
2019-02-17T11:10:21.393Z,53.50
2019-02-17T11:12:51.174Z,53.62
2019-02-17T11:15:21.238Z,53.67
2019-02-17T11:17:50.912Z,53.70
2019-02-17T11:20:20.672Z,53.97
2019-02-17T11:22:50.465Z,54.04
2019-02-17T11:25:20.250Z,54.31
2019-02-17T11:27:49.897Z,54.53
2019-02-17T11:30:21.183Z,53.53
2019-02-17T11:32:57.992Z,54.15
2019-02-17T11:35:22.386Z,54.12
2019-02-17T11:37:52.105Z,53.83
2019-02-17T11:40:21.801Z,53.66
2019-02-17T11:42:51.545Z,53.59
2019-02-17T11:45:21.329Z,52.95
2019-02-17T11:47:51.091Z,52.94
2019-02-17T11:50:20.775Z,53.54
2019-02-17T11:52:50.724Z,53.23
2019-02-17T11:55:22.675Z,53.29
2019-02-17T11:57:51.944Z,54.14
2019-02-17T12:00:22.662Z,52.91
2019-02-17T12:02:52.376Z,52.14
2019-02-17T12:05:22.099Z,53.10
2019-02-17T12:07:54.625Z,52.47
2019-02-17T12:10:24.338Z,52.42
2019-02-17T12:12:55.604Z,52.25
2019-02-17T12:15:25.337Z,52.17
2019-02-17T12:17:55.089Z,52.35
2019-02-17T12:20:41.760Z,52.76
2019-02-17T12:23:13.028Z,52.63
2019-02-17T12:25:47.094Z,52.46
2019-02-17T12:28:40.301Z,51.72
2019-02-17T12:31:13.832Z,51.71
2019-02-17T12:40:20.989Z,48.81
2019-02-17T12:43:02.256Z,49.31
2019-02-17T12:45:33.803Z,48.24
2019-02-17T12:50:52.528Z,48.93
2019-02-17T12:51:31.495Z,49.03
2019-02-17T12:53:28.908Z,48.72
2019-02-17T12:58:48.869Z,50.32
2019-02-17T13:01:23.669Z,50.06
2019-02-17T13:03:57.934Z,50.52
2019-02-17T13:06:36.531Z,50.69
2019-02-17T13:11:53.061Z,50.95
2019-02-17T13:14:25.719Z,51.07
2019-02-17T13:19:58.083Z,51.33
2019-02-17T13:25:17.610Z,52.17
2019-02-17T13:34:10.521Z,52.38
2019-02-17T13:36:46.206Z,52.69
2019-02-17T13:42:17.051Z,52.95
2019-02-17T13:44:50.524Z,52.56
2019-02-17T13:50:54.933Z,53.01
2019-02-17T13:53:27.130Z,53.31
2019-02-17T13:55:58.331Z,53.07
2019-02-17T13:58:30.812Z,53.04
2019-02-17T14:04:03.887Z,53.52
2019-02-17T14:09:51.501Z,53.47
2019-02-17T14:12:23.199Z,53.81
2019-02-17T14:14:55.483Z,53.88
2019-02-17T14:17:31.728Z,53.47
2019-02-17T14:20:10.725Z,53.72
2019-02-17T14:22:53.463Z,53.79
2019-02-17T14:25:28.666Z,53.45
2019-02-17T14:28:00.645Z,53.30
2019-02-17T14:30:33.980Z,53.42
2019-02-17T14:33:05.098Z,53.61
2019-02-17T14:38:50.129Z,53.94
2019-02-17T14:41:27.553Z,54.04
2019-02-17T14:43:59.996Z,54.11
2019-02-17T14:46:31.191Z,54.02
2019-02-17T14:49:02.622Z,53.88
2019-02-17T14:51:33.771Z,53.89
2019-02-17T14:54:06.719Z,54.03
2019-02-17T14:56:38.441Z,53.88
2019-02-17T14:59:10.409Z,54.09
2019-02-17T15:01:41.293Z,54.41
2019-02-17T15:04:11.633Z,54.26
2019-02-17T15:06:42.471Z,54.54
2019-02-17T15:09:13.231Z,54.43
2019-02-17T15:11:44.333Z,54.08
2019-02-17T15:14:15.572Z,54.40
2019-02-17T15:16:45.694Z,55.02
2019-02-17T15:19:16.692Z,55.02
2019-02-17T15:21:47.901Z,55.06
2019-02-17T15:24:19.371Z,55.06
2019-02-17T15:26:49.993Z,55.35
2019-02-17T15:29:21.373Z,55.39
2019-02-17T15:31:52.050Z,55.37
2019-02-17T15:34:22.045Z,55.98
2019-02-17T15:36:55.839Z,56.30
2019-02-17T15:39:26.258Z,56.16
2019-02-17T15:42:02.631Z,56.29
2019-02-17T15:44:32.635Z,56.77
2019-02-17T15:47:02.434Z,56.83
2019-02-17T15:49:34.625Z,56.91
2019-02-17T15:52:04.702Z,57.01
2019-02-17T15:54:35.870Z,57.62
2019-02-17T15:57:12.217Z,57.89
2019-02-17T15:59:45.942Z,58.40
2019-02-17T16:02:19.471Z,58.36
2019-02-17T16:04:58.153Z,59.09
2019-02-17T16:11:04.171Z,60.04
2019-02-17T16:13:42.196Z,60.16
2019-02-17T16:14:32.219Z,59.68
2019-02-17T16:16:13.845Z,60.47
2019-02-17T16:18:57.310Z,60.97
2019-02-17T16:21:32.375Z,60.95
2019-02-17T16:24:06.565Z,61.28
2019-02-17T16:26:37.895Z,61.49
2019-02-17T16:29:11.198Z,61.37
2019-02-17T16:31:44.594Z,61.71
2019-02-17T16:34:15.430Z,62.01
2019-02-17T16:36:47.577Z,62.27
2019-02-17T16:39:19.128Z,62.63
2019-02-17T16:41:54.247Z,62.77
2019-02-17T16:44:29.235Z,62.86
2019-02-17T16:47:01.530Z,63.29
2019-02-17T16:49:33.269Z,63.89
2019-02-17T16:52:06.233Z,63.95
2019-02-17T16:54:36.319Z,64.34
2019-02-17T16:57:06.782Z,64.53
2019-02-17T16:59:37.955Z,64.78
2019-02-17T17:02:08.436Z,65.01
2019-02-17T17:04:48.148Z,65.42
2019-02-17T17:07:11.882Z,65.61
2019-02-17T17:09:41.697Z,65.45
2019-02-17T17:12:11.703Z,65.76
2019-02-17T17:14:41.935Z,65.90
2019-02-17T17:17:11.925Z,65.83
2019-02-17T17:19:42.543Z,65.87
2019-02-17T17:22:15.033Z,66.11
2019-02-17T17:24:47.123Z,66.68
2019-02-17T17:27:18.382Z,66.40
2019-02-17T17:29:52.369Z,66.75
2019-02-17T17:32:23.332Z,66.72
2019-02-17T17:34:58.892Z,66.66
2019-02-17T17:37:28.268Z,67.27
2019-02-17T17:39:58.350Z,67.31
2019-02-17T17:42:28.640Z,67.72
2019-02-17T17:45:00.368Z,67.73
2019-02-17T17:47:36.197Z,67.26
2019-02-17T17:50:09.231Z,67.46
2019-02-17T17:52:42.182Z,67.62
2019-02-17T17:55:21.769Z,67.80
2019-02-17T17:57:52.861Z,68.34
2019-02-17T18:00:26.190Z,68.42
2019-02-17T18:03:06.140Z,67.96
2019-02-17T18:05:37.033Z,67.94
2019-02-17T18:08:15.354Z,68.08
2019-02-17T18:10:45.843Z,67.92
2019-02-17T18:13:24.288Z,68.04
2019-02-17T18:15:54.869Z,68.45
2019-02-17T18:18:33.092Z,68.78
2019-02-17T18:21:03.739Z,68.81
2019-02-17T18:23:41.300Z,68.78
2019-02-17T18:26:15.185Z,68.71
2019-02-17T18:31:33.435Z,69.21
2019-02-17T18:34:03.750Z,69.69
2019-02-17T18:36:35.363Z,68.85
2019-02-17T18:39:07.071Z,68.79
2019-02-17T18:41:41.074Z,68.93
2019-02-17T18:44:11.277Z,69.16
2019-02-17T18:46:41.373Z,69.39
2019-02-17T18:49:11.142Z,70.17
2019-02-17T18:51:41.854Z,70.24
2019-02-17T18:54:11.749Z,70.45
2019-02-17T18:56:41.478Z,70.72
2019-02-17T18:59:12.896Z,69.56
2019-02-17T19:01:43.125Z,69.92
2019-02-17T19:04:13.318Z,70.20
2019-02-17T19:07:07.199Z,71.09
2019-02-17T19:13:17.455Z,71.32
2019-02-17T19:15:53.832Z,70.98
2019-02-17T19:23:24.421Z,71.56
2019-02-17T19:24:27.162Z,70.85
2019-02-17T19:27:06.955Z,71.41
2019-02-17T19:32:57.782Z,70.86
2019-02-17T19:36:18.725Z,71.13
2019-02-17T19:38:49.028Z,71.11
2019-02-17T19:41:19.394Z,71.55
2019-02-17T19:43:49.559Z,71.80
2019-02-17T19:46:22.739Z,71.37
2019-02-17T19:52:50.587Z,71.33
2019-02-17T19:55:30.818Z,71.09
2019-02-17T19:58:01.559Z,71.04
2019-02-17T20:00:33.182Z,71.91
2019-02-17T20:03:07.508Z,71.75
2019-02-17T20:09:01.034Z,71.80
2019-02-17T20:11:31.599Z,71.44
2019-02-17T20:14:03.194Z,72.95
2019-02-17T20:16:34.188Z,72.60
2019-02-17T20:19:07.263Z,72.13
2019-02-17T20:21:39.925Z,72.26
2019-02-17T20:24:19.763Z,72.08
2019-02-17T20:30:18.908Z,72.33
2019-02-17T20:40:21.948Z,72.25
2019-02-17T20:42:59.407Z,71.75
2019-02-17T20:46:01.661Z,71.87
2019-02-17T20:52:01.337Z,71.65
2019-02-17T20:52:17.841Z,72.00
2019-02-17T20:58:07.470Z,73.51
2019-02-17T21:00:39.227Z,73.13
2019-02-17T21:03:19.045Z,72.75
2019-02-17T21:06:25.149Z,72.87
2019-02-17T21:09:00.628Z,72.57
2019-02-17T21:12:34.633Z,72.86
2019-02-17T21:14:29.222Z,72.62
2019-02-17T21:20:34.372Z,72.29
2019-02-17T21:26:05.968Z,72.89
2019-02-17T21:28:36.162Z,72.92
2019-02-17T21:31:07.839Z,72.70
2019-02-17T21:33:40.782Z,72.42
2019-02-17T21:36:22.597Z,72.56
2019-02-17T21:38:52.843Z,72.88
2019-02-17T21:41:22.858Z,73.06
2019-02-17T21:43:52.823Z,73.53
2019-02-17T21:46:23.128Z,73.28
2019-02-17T21:48:52.953Z,73.07
2019-02-17T21:51:27.263Z,73.19
2019-02-17T21:53:57.174Z,73.32
2019-02-17T21:56:36.366Z,73.73
2019-02-17T21:59:07.655Z,73.78
2019-02-17T22:07:47.056Z,74.31
2019-02-17T22:10:20.482Z,74.05
2019-02-17T22:12:51.460Z,73.24
2019-02-17T22:15:22.777Z,73.15
2019-02-17T22:17:52.571Z,73.24
2019-02-17T22:20:22.227Z,73.27
2019-02-17T22:22:52.013Z,72.99
2019-02-17T22:25:21.740Z,72.97
2019-02-17T22:27:51.516Z,72.86
2019-02-17T22:30:21.279Z,72.94
2019-02-17T22:32:51.005Z,73.32
2019-02-17T22:35:20.700Z,73.63
2019-02-17T22:37:50.454Z,73.60
2019-02-17T22:40:20.409Z,73.11
2019-02-17T22:42:50.060Z,73.44
2019-02-17T22:45:19.829Z,73.34
2019-02-17T22:47:49.553Z,73.58
2019-02-17T22:50:19.305Z,74.03
2019-02-17T22:52:49.032Z,74.15
2019-02-17T22:55:18.818Z,74.68
2019-02-17T22:57:48.546Z,74.62
2019-02-17T23:00:28.717Z,74.22
2019-02-17T23:02:58.449Z,74.20
2019-02-17T23:05:28.144Z,73.99
2019-02-17T23:07:57.870Z,74.02
2019-02-17T23:10:27.655Z,74.14
2019-02-17T23:12:57.317Z,74.32
2019-02-17T23:15:27.041Z,73.88
2019-02-17T23:17:56.772Z,74.03
2019-02-17T23:20:26.528Z,73.80
2019-02-17T23:22:56.319Z,73.65
2019-02-17T23:25:26.020Z,73.56
2019-02-17T23:27:55.716Z,73.60
2019-02-17T23:30:25.371Z,74.03
2019-02-17T23:32:55.139Z,73.98
2019-02-17T23:35:24.858Z,73.65
2019-02-17T23:37:54.611Z,73.41
2019-02-17T23:40:24.268Z,73.33
2019-02-17T23:42:54.027Z,73.59
2019-02-17T23:45:23.742Z,73.58
2019-02-17T23:47:53.504Z,73.88
2019-02-17T23:50:23.231Z,74.30
2019-02-17T23:52:54.656Z,74.79
2019-02-17T23:55:24.646Z,74.79
2019-02-17T23:57:54.442Z,75.21
